Strona główna
METAR-TAF:

METAR-TAF

Lotnisko :

Sanford Regional Airport

Sanford, Maine, Stany Zjednoczone

Szerokość geograficzna: 43-24N, Długość geograficzna: 070-43W, wysokość: 74 m

Aktualna obserwacja pogody

Raport powstał 50 minut temu, godzina 01:56 UTC
Cisza
Temperatura 5°C
Wilgotność 93%
Ciśnienie 1014 hPa
Widzialność: 16.1 km
Rozproszone chmury na wysokości 4200 ft

METAR: KSFM 060156Z AUTO 00000KT 10SM SCT042 05/04 A2994 RMK AO2 SLP144 T00500039

czas: 22:46 (02:46 UTC)


TAF: brakujący

Obserwacja i prognoza pogody dla ponad 4000 lotnisk (raport METAR i TAF).

Dostępne stacje oznaczono żółtymi i czerwonymi punktami na mapie.

Najedź kursorem aby zobaczyć nazwę stacji.

Kliknij aby zobaczyć obserwacje i prognozy pogody.

Aby zmienić mapę: kliknij na zielony przycisk z czarnym krzyżykiem, aby powiększyć; na zielony przycisk z myślnikiem, aby pomniejszyć; na zielone strzałki, aby przejść do map sąsiednich.


METAR-TAF: